createdAt,value
2023-05-11T00:02:01.260Z,7.13
2023-05-11T00:04:49.320Z,7.27
2023-05-11T00:07:38.726Z,7.70
2023-05-11T00:10:26.841Z,7.50
2023-05-11T00:13:14.890Z,7.22
2023-05-11T00:16:04.098Z,6.63
2023-05-11T00:18:52.162Z,7.00
2023-05-11T00:21:40.257Z,6.38
2023-05-11T00:24:30.210Z,7.07
2023-05-11T00:27:18.611Z,6.95
2023-05-11T00:30:08.186Z,6.70
2023-05-11T00:32:56.169Z,5.83
2023-05-11T00:35:44.164Z,6.53
2023-05-11T00:38:32.240Z,6.53
2023-05-11T00:41:22.094Z,6.55
2023-05-11T00:44:10.179Z,6.53
2023-05-11T00:46:58.531Z,6.83
2023-05-11T00:49:47.390Z,7.25
2023-05-11T00:52:35.491Z,7.30
2023-05-11T00:55:23.551Z,8.13
2023-05-11T00:58:12.946Z,7.50
2023-05-11T01:01:01.007Z,7.93
2023-05-11T01:03:49.291Z,7.80
2023-05-11T01:06:46.664Z,7.53
2023-05-11T01:09:47.562Z,8.10
2023-05-11T01:12:46.177Z,8.70
2023-05-11T01:15:41.741Z,7.47
2023-05-11T01:18:35.163Z,7.93
2023-05-11T01:21:23.224Z,8.10
2023-05-11T01:24:39.078Z,7.75
2023-05-11T01:27:50.335Z,8.98
2023-05-11T01:30:49.283Z,9.37
2023-05-11T01:33:40.673Z,9.13
2023-05-11T01:36:33.540Z,9.88
2023-05-11T01:39:37.738Z,10.40
2023-05-11T01:42:31.571Z,9.93
2023-05-11T01:45:21.020Z,9.33
2023-05-11T01:48:14.849Z,10.07
2023-05-11T01:51:04.679Z,9.85
2023-05-11T01:53:54.474Z,10.57
2023-05-11T01:56:44.409Z,10.13
2023-05-11T01:59:34.185Z,10.27
2023-05-11T02:02:22.946Z,10.35
2023-05-11T02:05:13.265Z,9.93
2023-05-11T02:08:03.797Z,10.15
2023-05-11T02:10:52.145Z,10.70
2023-05-11T02:13:44.363Z,11.53
2023-05-11T02:16:33.896Z,11.05
2023-05-11T02:19:22.606Z,10.73
2023-05-11T02:22:13.628Z,10.93
2023-05-11T02:25:01.736Z,11.70
2023-05-11T02:27:49.745Z,11.60
2023-05-11T02:30:42.222Z,11.45
2023-05-11T02:33:35.464Z,11.13
2023-05-11T02:36:25.008Z,10.98
2023-05-11T02:39:18.434Z,12.05
2023-05-11T02:42:12.083Z,11.57
2023-05-11T02:45:02.902Z,11.20
2023-05-11T02:47:55.127Z,10.60
2023-05-11T02:50:44.291Z,11.63
2023-05-11T02:53:35.518Z,10.95
2023-05-11T02:56:25.689Z,11.40
2023-05-11T02:59:13.912Z,11.30
2023-05-11T03:02:02.041Z,11.45
2023-05-11T03:04:50.245Z,11.75
2023-05-11T03:07:38.737Z,11.05
2023-05-11T03:10:27.877Z,11.53
2023-05-11T03:13:17.583Z,10.18
2023-05-11T03:16:07.586Z,10.75
2023-05-11T03:18:56.237Z,10.68
2023-05-11T03:21:44.428Z,10.30
2023-05-11T03:24:32.661Z,10.40
2023-05-11T03:27:21.401Z,10.82
2023-05-11T03:30:13.498Z,10.15
2023-05-11T03:33:02.410Z,10.43
2023-05-11T03:35:52.062Z,10.10
2023-05-11T03:38:40.414Z,9.87
2023-05-11T03:41:32.064Z,9.75
2023-05-11T03:44:22.407Z,9.68
2023-05-11T03:47:13.850Z,10.25
2023-05-11T03:50:03.907Z,10.25
2023-05-11T03:52:53.194Z,10.17
2023-05-11T03:55:41.351Z,10.10
2023-05-11T03:58:29.794Z,9.13
2023-05-11T04:01:18.031Z,9.82
2023-05-11T04:04:07.735Z,10.35
2023-05-11T04:06:55.862Z,10.40
2023-05-11T04:09:43.858Z,9.98
2023-05-11T04:12:31.970Z,9.88
2023-05-11T04:15:20.288Z,9.48
2023-05-11T04:18:08.379Z,10.10
2023-05-11T04:20:58.178Z,11.27
2023-05-11T04:23:46.113Z,10.40
2023-05-11T04:26:34.097Z,10.00
2023-05-11T04:29:22.143Z,10.70
2023-05-11T04:32:10.188Z,10.55
2023-05-11T04:34:58.296Z,10.90
2023-05-11T04:37:47.654Z,11.25
2023-05-11T04:40:37.050Z,11.15
2023-05-11T04:43:25.398Z,11.23
2023-05-11T04:46:13.436Z,11.25
2023-05-11T04:49:01.419Z,11.37
2023-05-11T04:51:49.356Z,11.82
2023-05-11T04:54:39.233Z,11.95
2023-05-11T04:57:27.222Z,12.57
2023-05-11T05:00:16.230Z,12.18
2023-05-11T05:03:04.617Z,12.60
2023-05-11T05:05:52.636Z,12.25
2023-05-11T05:08:40.613Z,11.50
2023-05-11T05:11:30.013Z,12.35
2023-05-11T05:14:18.004Z,11.70
2023-05-11T05:17:06.294Z,11.30
2023-05-11T05:19:54.395Z,13.05
2023-05-11T05:22:42.867Z,11.63
2023-05-11T05:25:30.834Z,11.73
2023-05-11T05:28:20.233Z,10.98
2023-05-11T05:31:08.298Z,10.77
2023-05-11T05:33:56.299Z,11.63
2023-05-11T05:36:45.148Z,11.00
2023-05-11T05:39:33.117Z,10.20
2023-05-11T05:42:22.365Z,11.38
2023-05-11T05:45:15.487Z,11.03
2023-05-11T05:48:06.070Z,11.50
2023-05-11T05:50:54.268Z,11.52
2023-05-11T05:53:42.364Z,11.20
2023-05-11T05:56:31.912Z,11.10
2023-05-11T05:59:23.255Z,10.73
2023-05-11T06:02:13.416Z,10.60
2023-05-11T06:05:01.633Z,10.63
2023-05-11T06:08:01.773Z,11.00
2023-05-11T06:10:58.275Z,11.38
2023-05-11T06:13:46.660Z,10.57
2023-05-11T06:16:34.888Z,11.13
2023-05-11T06:19:24.363Z,10.93
2023-05-11T06:22:12.450Z,10.57
2023-05-11T06:25:00.462Z,11.57
2023-05-11T06:27:48.459Z,11.33
2023-05-11T06:30:36.558Z,11.65
2023-05-11T06:33:24.482Z,11.25
2023-05-11T06:36:14.341Z,11.82
2023-05-11T06:39:02.397Z,11.52
2023-05-11T06:41:54.405Z,12.10
2023-05-11T06:44:43.182Z,11.30
2023-05-11T06:47:31.337Z,11.98
2023-05-11T06:50:20.999Z,12.82
2023-05-11T06:53:10.805Z,12.05
2023-05-11T06:55:59.226Z,12.00
2023-05-11T06:58:49.428Z,12.02
2023-05-11T07:01:37.625Z,11.60
2023-05-11T07:04:27.029Z,12.93
2023-05-11T07:07:15.045Z,12.65
2023-05-11T07:10:04.558Z,11.13
2023-05-11T07:12:52.560Z,12.73
2023-05-11T07:15:40.572Z,12.55
2023-05-11T07:18:28.611Z,12.63
2023-05-11T07:21:16.715Z,12.95
2023-05-11T07:24:05.209Z,12.87
2023-05-11T07:26:55.608Z,12.98
2023-05-11T07:29:43.586Z,12.70
2023-05-11T07:32:31.617Z,12.90
2023-05-11T07:35:20.351Z,12.88
2023-05-11T07:38:11.836Z,12.50
2023-05-11T07:41:00.070Z,12.77
2023-05-11T07:43:49.437Z,12.95
2023-05-11T07:46:37.544Z,11.70
2023-05-11T07:49:35.515Z,12.18
2023-05-11T07:52:27.806Z,12.87
2023-05-11T07:55:15.885Z,12.30
2023-05-11T07:58:03.903Z,12.80
2023-05-11T08:00:53.298Z,12.73
2023-05-11T08:03:41.448Z,13.20
2023-05-11T08:06:29.482Z,12.40
2023-05-11T08:09:17.539Z,12.63
2023-05-11T08:12:05.698Z,11.75
2023-05-11T08:14:53.759Z,10.57
2023-05-11T08:17:43.428Z,10.80
2023-05-11T08:20:31.625Z,11.50
2023-05-11T08:23:19.667Z,11.65
2023-05-11T08:26:07.797Z,11.20
2023-05-11T08:28:55.759Z,11.10
2023-05-11T08:31:43.936Z,11.30
2023-05-11T08:34:33.681Z,12.07
2023-05-11T08:37:21.834Z,11.85
2023-05-11T08:40:14.640Z,11.50
2023-05-11T08:43:07.229Z,11.05
2023-05-11T08:46:01.563Z,9.82
2023-05-11T08:48:50.376Z,10.10
2023-05-11T08:51:39.830Z,10.25
2023-05-11T08:54:27.862Z,9.30
2023-05-11T08:57:16.078Z,9.05
2023-05-11T09:00:05.202Z,8.50
2023-05-11T09:02:54.000Z,8.93
2023-05-11T09:05:44.183Z,10.27
2023-05-11T09:08:36.074Z,10.05
2023-05-11T09:11:24.975Z,10.60
2023-05-11T09:14:13.264Z,9.63
2023-05-11T09:17:02.912Z,9.67
2023-05-11T09:20:01.861Z,9.82
2023-05-11T09:22:49.810Z,9.70
2023-05-11T09:25:39.828Z,9.65
2023-05-11T09:31:37.220Z,10.60
2023-05-11T09:34:25.278Z,10.48
2023-05-11T09:37:18.415Z,10.57
2023-05-11T09:40:26.429Z,11.10
2023-05-11T09:43:21.363Z,10.48
2023-05-11T09:46:22.718Z,11.33
2023-05-11T09:49:10.958Z,10.98
2023-05-11T09:52:02.335Z,11.05
2023-05-11T09:54:52.631Z,11.95
2023-05-11T09:57:40.647Z,10.82
2023-05-11T10:00:30.129Z,10.90
2023-05-11T10:03:18.384Z,10.63
2023-05-11T10:06:06.728Z,11.13
2023-05-11T10:08:55.480Z,11.60
2023-05-11T10:11:46.407Z,10.25
2023-05-11T10:14:34.979Z,10.53
2023-05-11T10:17:26.249Z,11.10
2023-05-11T10:20:15.023Z,11.13
2023-05-11T10:23:03.606Z,11.02
2023-05-11T10:25:51.869Z,10.65
2023-05-11T10:28:40.606Z,11.13
2023-05-11T10:31:29.954Z,10.88
2023-05-11T10:34:23.151Z,11.35
2023-05-11T10:37:11.485Z,11.15
2023-05-11T10:40:00.274Z,11.32
2023-05-11T10:43:08.495Z,12.47
2023-05-11T10:46:09.689Z,11.55
2023-05-11T10:49:22.148Z,11.10
2023-05-11T10:52:37.106Z,10.68
2023-05-11T10:55:37.467Z,11.23
2023-05-11T10:58:39.479Z,11.03
2023-05-11T11:01:39.592Z,10.00
2023-05-11T11:04:43.327Z,9.95
2023-05-11T11:07:33.278Z,8.27
2023-05-11T11:10:32.433Z,7.70
2023-05-11T11:13:23.273Z,6.73
2023-05-11T11:16:16.584Z,7.03
2023-05-11T11:19:39.566Z,6.53
2023-05-11T11:22:51.084Z,5.38
2023-05-11T11:25:53.797Z,6.40
2023-05-11T11:29:10.359Z,5.70
2023-05-11T11:32:28.569Z,5.25
2023-05-11T11:35:46.885Z,5.05
2023-05-11T11:39:00.056Z,4.95
2023-05-11T11:42:01.110Z,5.25
2023-05-11T11:44:49.104Z,5.03
2023-05-11T11:47:37.102Z,4.78
2023-05-11T11:50:29.269Z,4.90
2023-05-11T11:54:06.659Z,5.15
2023-05-11T11:56:56.396Z,4.65
2023-05-11T11:59:48.377Z,5.07
2023-05-11T12:02:36.491Z,5.60
2023-05-11T12:05:28.827Z,6.65
2023-05-11T12:08:18.309Z,6.95
2023-05-11T12:11:07.158Z,6.97
2023-05-11T12:13:56.763Z,6.90
2023-05-11T12:16:44.759Z,7.35
2023-05-11T12:19:32.927Z,7.80
2023-05-11T12:22:24.470Z,7.43
2023-05-11T12:25:14.761Z,7.38
2023-05-11T12:28:02.962Z,7.07
2023-05-11T12:30:56.668Z,6.93
2023-05-11T12:33:49.552Z,5.78
2023-05-11T12:36:37.734Z,6.32
2023-05-11T12:39:27.266Z,6.35
2023-05-11T12:42:20.036Z,5.63
2023-05-11T12:45:09.693Z,6.10
2023-05-11T12:47:59.541Z,6.60
2023-05-11T12:50:47.925Z,7.70
2023-05-11T12:53:36.922Z,7.05
2023-05-11T12:56:24.948Z,6.70
2023-05-11T12:59:28.462Z,7.22
2023-05-11T13:02:18.669Z,6.03
2023-05-11T13:05:16.575Z,6.13
2023-05-11T13:08:06.206Z,6.20
2023-05-11T13:10:54.227Z,6.83
2023-05-11T13:13:42.246Z,6.95
2023-05-11T13:16:31.710Z,6.13
2023-05-11T13:19:29.486Z,6.60
2023-05-11T13:22:20.479Z,8.15
2023-05-11T13:25:10.007Z,8.37
2023-05-11T13:27:58.350Z,7.75
2023-05-11T13:30:46.758Z,8.40
2023-05-11T13:33:35.089Z,8.20
2023-05-11T13:36:23.059Z,9.02
2023-05-11T13:39:12.427Z,8.00
2023-05-11T13:42:00.421Z,8.27
2023-05-11T13:44:48.354Z,8.93
2023-05-11T13:47:37.018Z,7.38
2023-05-11T13:50:26.122Z,6.40
2023-05-11T13:53:14.136Z,5.20
2023-05-11T13:56:04.394Z,6.25
2023-05-11T13:58:52.435Z,5.97
2023-05-11T14:01:40.584Z,7.00
2023-05-11T14:04:28.713Z,6.35
2023-05-11T14:07:16.952Z,6.77
2023-05-11T14:10:05.499Z,7.43
2023-05-11T14:12:54.795Z,6.57
2023-05-11T14:15:42.991Z,7.35
2023-05-11T14:18:31.124Z,7.30
2023-05-11T14:21:19.279Z,7.63
2023-05-11T14:24:12.524Z,6.50
2023-05-11T14:27:00.894Z,6.68
2023-05-11T14:29:51.502Z,5.05
2023-05-11T14:32:39.572Z,4.45
2023-05-11T14:35:27.631Z,4.50
2023-05-11T14:38:15.848Z,3.97
2023-05-11T14:41:03.873Z,4.05
2023-05-11T14:43:51.811Z,4.53
2023-05-11T14:46:41.160Z,4.20
2023-05-11T14:49:29.225Z,4.27
2023-05-11T14:52:17.632Z,4.38
2023-05-11T14:55:06.298Z,4.72
2023-05-11T14:57:54.327Z,5.00
2023-05-11T15:00:43.740Z,4.45
2023-05-11T15:03:33.194Z,5.00
2023-05-11T15:06:22.398Z,4.85
2023-05-11T15:09:10.562Z,4.60
2023-05-11T15:11:59.898Z,4.97
2023-05-11T15:14:47.860Z,4.45
2023-05-11T15:17:36.156Z,4.77
2023-05-11T15:20:25.854Z,4.68
2023-05-11T15:23:16.721Z,4.10
2023-05-11T15:26:05.182Z,3.80
2023-05-11T15:28:53.148Z,3.95
2023-05-11T15:31:57.527Z,4.20
2023-05-11T15:34:59.442Z,4.53
2023-05-11T15:37:52.308Z,4.50
2023-05-11T15:41:36.540Z,4.85
2023-05-11T15:44:29.423Z,4.28
2023-05-11T15:47:20.497Z,4.20
2023-05-11T15:50:09.300Z,5.00
2023-05-11T15:52:58.941Z,4.95
2023-05-11T15:55:51.176Z,5.32
2023-05-11T15:58:39.374Z,5.60
2023-05-11T16:01:27.425Z,5.90
2023-05-11T16:04:39.211Z,6.15
2023-05-11T16:07:27.359Z,6.15
2023-05-11T16:10:16.923Z,6.30
2023-05-11T16:13:05.267Z,5.90
2023-05-11T16:15:53.309Z,5.30
2023-05-11T16:18:41.431Z,5.88
2023-05-11T16:21:29.648Z,5.72
2023-05-11T16:24:17.592Z,5.30
2023-05-11T16:27:07.302Z,4.63
2023-05-11T16:29:55.242Z,4.67
2023-05-11T16:32:44.077Z,4.43
2023-05-11T16:35:32.060Z,4.00
2023-05-11T16:38:21.365Z,4.20
2023-05-11T16:41:09.517Z,4.93
2023-05-11T16:43:58.978Z,4.37
2023-05-11T16:46:47.063Z,4.75
2023-05-11T16:49:35.433Z,4.43
2023-05-11T16:52:24.675Z,4.05
2023-05-11T16:55:12.657Z,4.50
2023-05-11T16:58:00.633Z,4.30
2023-05-11T17:00:50.191Z,4.35
2023-05-11T17:03:38.501Z,3.80
2023-05-11T17:06:27.764Z,3.90
2023-05-11T17:09:15.799Z,4.22
2023-05-11T17:12:09.316Z,3.93
2023-05-11T17:14:58.269Z,3.85
2023-05-11T17:17:47.669Z,3.50
2023-05-11T17:20:35.981Z,3.75
2023-05-11T17:23:26.429Z,3.60
2023-05-11T17:26:14.865Z,3.87
2023-05-11T17:29:04.472Z,4.40
2023-05-11T17:31:52.824Z,4.07
2023-05-11T17:34:42.307Z,5.10
2023-05-11T17:37:32.063Z,5.15
2023-05-11T17:40:20.883Z,4.77
2023-05-11T17:43:09.107Z,4.82
2023-05-11T17:45:57.093Z,5.43
2023-05-11T17:48:45.165Z,5.47
2023-05-11T17:51:34.558Z,5.15
2023-05-11T17:54:22.644Z,5.37
2023-05-11T17:57:10.773Z,5.88
2023-05-11T18:00:15.270Z,6.25
2023-05-11T18:03:03.604Z,6.30
2023-05-11T18:05:52.420Z,5.90
2023-05-11T18:08:41.748Z,6.47
2023-05-11T18:11:29.737Z,6.18
2023-05-11T18:14:17.971Z,5.78
2023-05-11T18:17:06.218Z,6.10
2023-05-11T18:19:54.255Z,6.35
2023-05-11T18:22:42.361Z,6.17
2023-05-11T18:25:32.557Z,6.70
2023-05-11T18:28:20.563Z,6.45
2023-05-11T18:31:08.573Z,6.30
2023-05-11T18:33:56.995Z,6.28
2023-05-11T18:36:45.162Z,6.90
2023-05-11T18:39:33.118Z,5.75
2023-05-11T18:42:22.488Z,6.30
2023-05-11T18:45:11.863Z,6.20
2023-05-11T18:47:59.885Z,5.97
2023-05-11T18:50:54.928Z,6.07
2023-05-11T18:53:42.872Z,6.15
2023-05-11T18:56:30.817Z,6.45
2023-05-11T18:59:20.449Z,6.88
2023-05-11T19:02:08.496Z,6.97
2023-05-11T19:04:57.092Z,7.00
2023-05-11T19:07:46.335Z,6.95
2023-05-11T19:10:37.957Z,6.70
2023-05-11T19:13:26.461Z,6.32
2023-05-11T19:16:15.849Z,7.07
2023-05-11T19:19:04.012Z,7.00
2023-05-11T19:21:52.708Z,7.10
2023-05-11T19:24:40.762Z,7.18
2023-05-11T19:27:28.788Z,7.13
2023-05-11T19:30:17.010Z,6.38
2023-05-11T19:33:06.604Z,6.63
2023-05-11T19:35:54.667Z,6.03
2023-05-11T19:38:42.927Z,6.40
2023-05-11T19:41:30.939Z,7.25
2023-05-11T19:44:18.876Z,6.65
2023-05-11T19:47:06.931Z,6.13
2023-05-11T19:49:56.407Z,6.95
2023-05-11T19:52:44.471Z,7.60
2023-05-11T19:55:32.417Z,7.32
2023-05-11T19:58:20.438Z,7.72
2023-05-11T20:01:08.522Z,7.57
2023-05-11T20:03:57.083Z,8.20
2023-05-11T20:06:46.638Z,8.55
2023-05-11T20:09:34.716Z,8.82
2023-05-11T20:12:23.112Z,8.48
2023-05-11T20:15:11.592Z,8.67
2023-05-11T20:17:59.827Z,8.50
2023-05-11T20:20:47.900Z,8.70
2023-05-11T20:23:39.181Z,7.97
2023-05-11T20:26:27.220Z,8.55
2023-05-11T20:29:15.431Z,8.50
2023-05-11T20:32:03.507Z,8.90
2023-05-11T20:34:51.954Z,8.35
2023-05-11T20:37:40.632Z,9.25
2023-05-11T20:40:30.173Z,8.85
2023-05-11T20:43:18.154Z,8.80
2023-05-11T20:46:07.563Z,9.35
2023-05-11T20:48:56.072Z,9.73
2023-05-11T20:51:44.360Z,9.98
2023-05-11T20:54:33.756Z,10.13
2023-05-11T20:57:23.434Z,10.33
2023-05-11T21:00:15.571Z,10.57
2023-05-11T21:03:04.412Z,10.55
2023-05-11T21:05:53.376Z,10.15
2023-05-11T21:08:41.483Z,10.25
2023-05-11T21:11:29.627Z,9.80
2023-05-11T21:14:19.034Z,10.68
2023-05-11T21:17:07.040Z,10.02
2023-05-11T21:19:55.054Z,10.18
2023-05-11T21:22:43.025Z,9.32
2023-05-11T21:25:31.099Z,10.87
2023-05-11T21:28:19.127Z,9.88
2023-05-11T21:31:08.660Z,9.40
2023-05-11T21:33:57.729Z,10.20
2023-05-11T21:36:46.407Z,9.32
2023-05-11T21:39:34.730Z,9.03
2023-05-11T21:42:22.692Z,9.07
2023-05-11T21:45:11.935Z,9.27
2023-05-11T21:48:01.500Z,8.70
2023-05-11T21:50:54.412Z,8.88
2023-05-11T21:53:42.530Z,8.63
2023-05-11T21:56:30.691Z,9.25
2023-05-11T21:59:19.745Z,9.95
2023-05-11T22:02:08.353Z,9.70
2023-05-11T22:04:57.729Z,9.68
2023-05-11T22:07:45.792Z,8.70
2023-05-11T22:10:33.762Z,8.43
2023-05-11T22:13:21.705Z,8.57
2023-05-11T22:16:09.789Z,8.38
2023-05-11T22:18:57.901Z,8.25
2023-05-11T22:21:47.409Z,7.40
2023-05-11T22:24:35.384Z,7.65
2023-05-11T22:27:23.432Z,6.65
2023-05-11T22:30:12.349Z,7.22
2023-05-11T22:33:00.839Z,6.57
2023-05-11T22:35:49.301Z,6.93
2023-05-11T22:38:39.540Z,5.78
2023-05-11T22:41:27.466Z,6.07
2023-05-11T22:44:15.487Z,6.10
2023-05-11T22:47:03.428Z,5.57
2023-05-11T22:49:51.931Z,5.27
2023-05-11T22:52:40.397Z,5.70
2023-05-11T22:55:29.744Z,5.63
2023-05-11T22:58:18.132Z,5.82
2023-05-11T23:01:06.306Z,6.05
2023-05-11T23:03:54.242Z,6.57
2023-05-11T23:06:42.384Z,6.38
2023-05-11T23:09:30.382Z,5.85
2023-05-11T23:12:20.056Z,5.75
2023-05-11T23:15:09.609Z,6.22
2023-05-11T23:17:57.692Z,5.53
2023-05-11T23:20:45.786Z,6.13
2023-05-11T23:23:33.793Z,5.90
2023-05-11T23:26:22.002Z,6.55
2023-05-11T23:29:11.450Z,5.82
2023-05-11T23:31:59.409Z,5.87
2023-05-11T23:34:47.472Z,5.68
2023-05-11T23:37:35.428Z,5.55
2023-05-11T23:40:23.739Z,5.28
2023-05-11T23:43:11.704Z,5.60
2023-05-11T23:46:02.387Z,5.70
2023-05-11T23:48:50.410Z,4.53
2023-05-11T23:51:38.457Z,5.15
2023-05-11T23:54:26.514Z,4.80
2023-05-11T23:57:14.500Z,4.68
